MET'MAP v2.0
soon released !

Expected late october,
this new version will be
more efficient, smarter,
and hosted on a brand new
server x3 powerfull...
...and still free !


Not compatible ?
Try the mobile version !

LOG IN : | Subscribe | Disclaimer | Who is Orbifly ? |
ICAO code :

TAF - LYKV Ladevci Airport - 24 Oct 2020 19:56 UTC - Data Source NOAA   


- Airport Elevation : 686 ft
- No reported NOTAMs.


LYKV - Ladevci Airport

Latest METAR recorded : 2015/08/11 08:00 LYKV 110800Z VRB02KT CAVOK 25/14 Q1014 NOSIG
TAF TAF LYKV
Valid from the 24 at 12:00 until the 25 at 12:00 UTC


241100Z 2412/2512 32005KT 9999 SCT040 TX21/2413 TN10/2504Z
TEMPO 2417/2512 5000 RA BKN010 BKN030

Source NOAA


MET'MAP, your aeronautical weather chart ! - Copyright ORBIFLY December 2007

Programming & Development : Alexandra Zaïnal
Co-Developer : Marc-Olivier Méhu
Technical & hardware support : Manuel Goepfert
Concept & Financing : Baudouin d'Aumeries